Apple River, Illinois
Current Conditions -  °F | °C
As of 7:15 AM on Thursday 30 Oct 2014 (Local Time) from KPVB Reporting Station
Clear Clear  
Wind Chill:   Ceiling: Unl
Heat Index:   Visibility: 10mi
Dew Point:   Wind: 3mph
Humidity: 91%   Direction: 150°SSE
Pressure: 30.1"   Gusts: NA
Location:  42.51°N, 90.1°W
Report Text: KPVB 301215Z AUTO 15003KT 10SM CLR 02/00 A3010 RMK AO1 T00160002
Loading
Personal Weather Stations






























Interactive Weather Map
Tropical Storm Tracking
New forecast layout! Learn more

10-Day Weather Forecast

Advertisements
Track Severe Weather on mobile